createdAt,value
2022-11-20T00:00:05.621Z,98775.81
2022-11-20T00:02:36.260Z,98774.48
2022-11-20T00:05:08.323Z,98771.70
2022-11-20T00:07:38.998Z,98772.11
2022-11-20T00:10:11.065Z,98764.78
2022-11-20T00:12:41.765Z,98762.98
2022-11-20T00:15:13.812Z,98760.56
2022-11-20T00:17:44.680Z,98756.91
2022-11-20T00:20:16.651Z,98757.67
2022-11-20T00:22:47.480Z,98747.00
2022-11-20T00:25:18.747Z,98753.89
2022-11-20T00:27:49.874Z,98746.51
2022-11-20T00:30:21.272Z,98743.09
2022-11-20T00:32:51.951Z,98742.66
2022-11-20T00:35:23.011Z,98736.09
2022-11-20T00:37:53.653Z,98737.71
2022-11-20T00:40:24.342Z,98744.48
2022-11-20T00:42:55.007Z,98743.45
2022-11-20T00:45:25.746Z,98749.80
2022-11-20T00:47:56.361Z,98750.13
2022-11-20T00:50:27.234Z,98749.36
2022-11-20T00:52:57.907Z,98753.77
2022-11-20T00:55:28.915Z,98752.58
2022-11-20T00:58:02.485Z,98751.45
2022-11-20T01:00:35.162Z,98750.38
2022-11-20T01:03:06.006Z,98753.14
2022-11-20T01:05:39.336Z,98751.55
2022-11-20T01:08:12.902Z,98749.49
2022-11-20T01:10:43.578Z,98746.24
2022-11-20T01:13:46.549Z,98736.35
2022-11-20T01:16:20.400Z,98751.71
2022-11-20T01:18:53.127Z,98747.34
2022-11-20T01:21:26.324Z,98752.70
2022-11-20T01:23:58.634Z,98752.17
2022-11-20T01:26:32.113Z,98751.71
2022-11-20T01:29:03.941Z,98746.48
2022-11-20T01:31:35.848Z,98755.84
2022-11-20T01:34:08.182Z,98751.62
2022-11-20T01:36:40.075Z,98749.45
2022-11-20T01:39:15.156Z,98747.77
2022-11-20T01:42:09.644Z,98742.63
2022-11-20T01:44:59.668Z,98740.14
2022-11-20T01:47:39.027Z,98731.79
2022-11-20T01:50:16.805Z,98734.20
2022-11-20T01:52:52.134Z,98719.29
2022-11-20T01:55:25.735Z,98730.52
2022-11-20T01:57:56.793Z,98731.39
2022-11-20T02:00:27.735Z,98729.27
2022-11-20T02:03:02.635Z,98726.79
2022-11-20T02:05:39.646Z,98726.61
2022-11-20T02:08:10.590Z,98724.48
2022-11-20T02:10:41.617Z,98725.55
2022-11-20T02:13:30.129Z,98727.08
2022-11-20T02:16:01.123Z,98731.02
2022-11-20T02:18:33.393Z,98729.59
2022-11-20T02:21:10.002Z,98730.05
2022-11-20T02:23:46.649Z,98731.80
2022-11-20T02:26:20.643Z,98728.08
2022-11-20T02:28:51.820Z,98722.94
2022-11-20T02:31:22.453Z,98719.77
2022-11-20T02:33:59.055Z,98717.93
2022-11-20T02:36:33.122Z,98719.95
2022-11-20T02:39:04.164Z,98715.88
2022-11-20T02:41:40.202Z,98715.91
2022-11-20T02:44:11.047Z,98717.70
2022-11-20T02:46:41.643Z,98711.46
2022-11-20T02:49:12.689Z,98713.70
2022-11-20T02:51:43.277Z,98709.27
2022-11-20T02:54:14.236Z,98706.38
2022-11-20T02:56:45.165Z,98702.48
2022-11-20T02:59:15.899Z,98708.02
2022-11-20T03:01:46.993Z,98711.42
2022-11-20T03:04:17.992Z,98715.30
2022-11-20T03:06:48.903Z,98714.27
2022-11-20T03:09:20.019Z,98716.56
2022-11-20T03:11:51.046Z,98715.58
2022-11-20T03:14:21.658Z,98716.16
2022-11-20T03:16:52.292Z,98716.23
2022-11-20T03:19:23.462Z,98721.86
2022-11-20T03:21:54.791Z,98723.95
2022-11-20T03:24:25.713Z,98728.59
2022-11-20T03:26:56.475Z,98725.06
2022-11-20T03:29:27.627Z,98729.70
2022-11-20T03:31:58.560Z,98732.81
2022-11-20T03:34:29.779Z,98733.56
2022-11-20T03:37:00.400Z,98735.33
2022-11-20T03:39:31.298Z,98734.75
2022-11-20T03:42:02.023Z,98729.32
2022-11-20T03:44:32.864Z,98730.23
2022-11-20T03:47:03.702Z,98730.94
2022-11-20T03:49:36.180Z,98731.48
2022-11-20T03:52:07.012Z,98729.70
2022-11-20T03:54:38.136Z,98727.34
2022-11-20T03:57:09.289Z,98723.02
2022-11-20T03:59:39.950Z,98722.33
2022-11-20T04:02:10.737Z,98722.73
2022-11-20T04:04:41.575Z,98720.41
2022-11-20T04:07:12.624Z,98720.86
2022-11-20T04:09:43.411Z,98717.30
2022-11-20T04:12:14.151Z,98719.13
2022-11-20T04:14:44.887Z,98718.84
2022-11-20T04:17:15.524Z,98716.04
2022-11-20T04:19:46.353Z,98700.16
2022-11-20T04:22:16.973Z,98705.95
2022-11-20T04:24:47.599Z,98704.66
2022-11-20T04:27:18.248Z,98701.77
2022-11-20T04:29:49.035Z,98701.35
2022-11-20T04:32:19.727Z,98704.73
2022-11-20T04:34:50.547Z,98702.17
2022-11-20T04:37:21.406Z,98705.17
2022-11-20T04:39:52.398Z,98701.30
2022-11-20T04:42:32.522Z,98705.33
2022-11-20T04:45:03.352Z,98702.83
2022-11-20T04:47:34.067Z,98702.09
2022-11-20T04:50:05.319Z,98700.75
2022-11-20T04:52:36.089Z,98695.63
2022-11-20T04:55:08.433Z,98694.95
2022-11-20T04:57:39.013Z,98694.95
2022-11-20T05:00:12.967Z,98691.96
2022-11-20T05:02:44.139Z,98689.23
2022-11-20T05:05:14.993Z,98687.56
2022-11-20T05:07:45.732Z,98686.05
2022-11-20T05:10:16.902Z,98683.26
2022-11-20T05:12:47.724Z,98679.94
2022-11-20T05:15:18.968Z,98679.20
2022-11-20T05:17:53.599Z,98678.71
2022-11-20T05:20:24.441Z,98682.99
2022-11-20T05:22:58.307Z,98674.28
2022-11-20T05:25:27.549Z,98680.23
2022-11-20T05:27:58.286Z,98680.76
2022-11-20T05:30:29.227Z,98682.77
2022-11-20T05:33:00.088Z,98683.19
2022-11-20T05:35:30.870Z,98682.73
2022-11-20T05:38:01.543Z,98681.06
2022-11-20T05:40:32.532Z,98682.96
2022-11-20T05:43:03.180Z,98682.44
2022-11-20T05:45:33.950Z,98686.93
2022-11-20T05:48:05.011Z,98689.20
2022-11-20T05:50:35.746Z,98688.84
2022-11-20T05:53:06.483Z,98691.33
2022-11-20T05:55:37.105Z,98690.64
2022-11-20T05:58:07.713Z,98688.22
2022-11-20T06:00:38.953Z,98687.35
2022-11-20T06:03:09.610Z,98689.95
2022-11-20T06:05:40.235Z,98691.23
2022-11-20T06:08:10.908Z,98691.04
2022-11-20T06:10:41.703Z,98684.16
2022-11-20T06:13:12.384Z,98680.37
2022-11-20T06:15:43.046Z,98674.60
2022-11-20T06:18:13.656Z,98674.30
2022-11-20T06:20:44.270Z,98674.38
2022-11-20T06:23:15.302Z,98670.73
2022-11-20T06:25:46.867Z,98674.33
2022-11-20T06:28:17.528Z,98671.13
2022-11-20T06:30:50.340Z,98672.48
2022-11-20T06:33:21.004Z,98672.18
2022-11-20T06:35:56.864Z,98672.80
2022-11-20T06:38:30.577Z,98673.61
2022-11-20T06:41:01.219Z,98671.03
2022-11-20T06:43:32.498Z,98669.14
2022-11-20T06:46:03.256Z,98673.10
2022-11-20T06:48:34.175Z,98669.82
2022-11-20T06:51:07.359Z,98669.25
2022-11-20T06:53:38.910Z,98671.69
2022-11-20T06:56:10.754Z,98674.03
2022-11-20T06:58:41.514Z,98673.48
2022-11-20T07:01:14.577Z,98669.86
2022-11-20T07:03:48.008Z,98673.54
2022-11-20T07:06:22.090Z,98672.00
2022-11-20T07:08:54.431Z,98673.44
2022-11-20T07:11:25.492Z,98681.13
2022-11-20T07:13:56.164Z,98682.77
2022-11-20T07:16:27.110Z,98678.56
2022-11-20T07:18:57.768Z,98671.81
2022-11-20T07:21:28.608Z,98663.73
2022-11-20T07:23:59.511Z,98648.87
2022-11-20T07:26:30.368Z,98657.05
2022-11-20T07:29:01.174Z,98659.15
2022-11-20T07:31:31.875Z,98664.04
2022-11-20T07:34:02.942Z,98665.81
2022-11-20T07:36:33.632Z,98662.10
2022-11-20T07:39:04.396Z,98660.23
2022-11-20T07:41:35.222Z,98657.68
2022-11-20T07:44:06.396Z,98655.86
2022-11-20T07:46:37.425Z,98658.55
2022-11-20T07:49:08.154Z,98663.41
2022-11-20T07:51:38.894Z,98668.42
2022-11-20T07:54:10.048Z,98675.73
2022-11-20T07:56:40.782Z,98675.20
2022-11-20T07:59:12.878Z,98676.50
2022-11-20T08:01:43.990Z,98676.95
2022-11-20T08:04:17.208Z,98677.02
2022-11-20T08:06:48.137Z,98676.44
2022-11-20T08:09:19.252Z,98672.52
2022-11-20T08:12:08.124Z,98674.35
2022-11-20T08:14:38.827Z,98672.13
2022-11-20T08:17:09.460Z,98668.50
2022-11-20T08:19:40.236Z,98667.30
2022-11-20T08:22:10.894Z,98662.42
2022-11-20T08:24:41.718Z,98658.05
2022-11-20T08:27:12.315Z,98659.13
2022-11-20T08:29:43.118Z,98666.98
2022-11-20T08:32:13.927Z,98664.48
2022-11-20T08:34:44.753Z,98659.59
2022-11-20T08:37:15.507Z,98662.77
2022-11-20T08:39:46.145Z,98665.45
2022-11-20T08:42:16.836Z,98662.20
2022-11-20T08:44:47.718Z,98657.61
2022-11-20T08:47:18.618Z,98656.52
2022-11-20T08:49:49.400Z,98652.73
2022-11-20T08:52:20.237Z,98645.50
2022-11-20T08:54:51.211Z,98652.91
2022-11-20T08:57:22.005Z,98647.84
2022-11-20T09:00:06.148Z,98649.72
2022-11-20T09:02:37.924Z,98651.99
2022-11-20T09:05:09.844Z,98650.06
2022-11-20T09:07:41.447Z,98643.77
2022-11-20T09:10:28.783Z,98638.42
2022-11-20T09:12:59.997Z,98640.85
2022-11-20T09:15:30.852Z,98635.58
2022-11-20T09:18:03.438Z,98631.81
2022-11-20T09:20:34.637Z,98627.15
2022-11-20T09:23:05.367Z,98627.34
2022-11-20T09:25:36.055Z,98631.59
2022-11-20T09:28:07.405Z,98628.03
2022-11-20T09:30:38.349Z,98625.65
2022-11-20T09:33:09.742Z,98630.30
2022-11-20T09:35:40.953Z,98632.63
2022-11-20T09:38:12.921Z,98632.45
2022-11-20T09:40:50.306Z,98621.23
2022-11-20T09:43:25.749Z,98617.13
2022-11-20T09:46:08.564Z,98614.39
2022-11-20T09:48:57.802Z,98606.95
2022-11-20T09:51:43.337Z,98599.44
2022-11-20T09:54:20.204Z,98588.55
2022-11-20T09:56:57.152Z,98581.92
2022-11-20T09:59:37.412Z,98577.21
2022-11-20T10:02:22.170Z,98580.16
2022-11-20T10:04:58.232Z,98580.20
2022-11-20T10:07:38.708Z,98577.23
2022-11-20T10:10:31.449Z,98572.59
2022-11-20T10:13:17.320Z,98575.80
2022-11-20T10:15:51.466Z,98573.02
2022-11-20T10:18:33.256Z,98570.34
2022-11-20T10:21:11.990Z,98572.77
2022-11-20T10:23:55.128Z,98575.39
2022-11-20T10:26:38.287Z,98571.94
2022-11-20T10:29:15.203Z,98569.74
2022-11-20T10:31:50.413Z,98571.73
2022-11-20T10:34:29.166Z,98575.75
2022-11-20T10:37:07.216Z,98571.07
2022-11-20T10:39:44.819Z,98567.55
2022-11-20T10:42:19.525Z,98568.21
2022-11-20T10:45:06.055Z,98573.21
2022-11-20T10:47:38.047Z,98572.41
2022-11-20T10:50:21.677Z,98567.24
2022-11-20T10:53:02.966Z,98571.58
2022-11-20T10:55:42.768Z,98566.99
2022-11-20T10:58:15.568Z,98557.96
2022-11-20T11:00:46.609Z,98554.98
2022-11-20T11:03:29.671Z,98559.72
2022-11-20T11:06:07.931Z,98560.83
2022-11-20T11:08:41.732Z,98549.25
2022-11-20T11:11:23.443Z,98539.31
2022-11-20T11:13:54.520Z,98538.00
2022-11-20T11:16:28.184Z,98540.30
2022-11-20T11:19:06.950Z,98535.14
2022-11-20T11:21:42.441Z,98545.38
2022-11-20T11:24:41.696Z,98533.64
2022-11-20T11:27:19.191Z,98535.50
2022-11-20T11:29:50.556Z,98529.89
2022-11-20T11:32:24.090Z,98522.46
2022-11-20T11:35:05.459Z,98524.98
2022-11-20T11:37:39.227Z,98515.73
2022-11-20T11:40:27.349Z,98519.46
2022-11-20T11:43:03.578Z,98513.40
2022-11-20T11:45:34.334Z,98507.86
2022-11-20T11:48:11.349Z,98511.56
2022-11-20T11:50:53.046Z,98515.85
2022-11-20T11:53:27.514Z,98519.77
2022-11-20T11:56:06.000Z,98517.34
2022-11-20T11:58:46.870Z,98522.30
2022-11-20T12:01:30.119Z,98520.23
2022-11-20T12:04:06.572Z,98508.68
2022-11-20T12:06:41.849Z,98499.03
2022-11-20T12:09:15.032Z,98504.10
2022-11-20T12:11:52.289Z,98491.83
2022-11-20T12:14:29.989Z,98493.81
2022-11-20T12:17:02.455Z,98510.54
2022-11-20T12:19:35.356Z,98517.06
2022-11-20T12:22:15.144Z,98520.30
2022-11-20T12:24:58.621Z,98516.36
2022-11-20T12:27:54.982Z,98512.08
2022-11-20T12:30:26.621Z,98507.01
2022-11-20T12:33:39.269Z,98502.36
2022-11-20T12:36:21.902Z,98498.98
2022-11-20T12:39:12.010Z,98501.65
2022-11-20T12:42:13.586Z,98501.83
2022-11-20T12:45:12.231Z,98502.02
2022-11-20T12:47:57.664Z,98498.02
2022-11-20T12:50:53.676Z,98499.91
2022-11-20T12:53:38.923Z,98496.08
2022-11-20T12:56:22.876Z,98496.02
2022-11-20T12:59:07.501Z,98492.67
2022-11-20T13:01:45.925Z,98481.13
2022-11-20T13:04:35.330Z,98474.48
2022-11-20T13:07:10.007Z,98476.43
2022-11-20T13:09:47.390Z,98468.49
2022-11-20T13:12:26.498Z,98461.07
2022-11-20T13:15:07.343Z,98458.81
2022-11-20T13:17:44.948Z,98446.10
2022-11-20T13:20:20.124Z,98443.98
2022-11-20T13:22:53.208Z,98449.25
2022-11-20T13:25:29.379Z,98455.92
2022-11-20T13:28:01.994Z,98463.77
2022-11-20T13:30:34.382Z,98465.85
2022-11-20T13:33:10.841Z,98459.58
2022-11-20T13:35:44.886Z,98460.06
2022-11-20T13:38:16.836Z,98456.20
2022-11-20T13:40:57.614Z,98460.15
2022-11-20T13:43:37.310Z,98457.83
2022-11-20T13:46:10.699Z,98461.30
2022-11-20T13:48:45.696Z,98452.77
2022-11-20T13:51:31.255Z,98449.58
2022-11-20T13:54:36.887Z,98447.40
2022-11-20T13:57:18.601Z,98449.48
2022-11-20T13:59:59.655Z,98446.66
2022-11-20T14:02:32.167Z,98453.95
2022-11-20T14:05:04.008Z,98457.63
2022-11-20T14:07:42.057Z,98453.11
2022-11-20T14:10:30.100Z,98447.31
2022-11-20T14:13:17.801Z,98434.95
2022-11-20T14:15:47.226Z,98437.99
2022-11-20T14:18:22.820Z,98438.86
2022-11-20T14:20:53.713Z,98437.10
2022-11-20T14:23:30.740Z,98437.73
2022-11-20T14:26:01.783Z,98432.23
2022-11-20T14:28:34.118Z,98428.97
2022-11-20T14:31:05.098Z,98430.90
2022-11-20T14:33:37.778Z,98429.45
2022-11-20T14:36:19.010Z,98425.22
2022-11-20T14:38:50.535Z,98423.23
2022-11-20T14:41:23.705Z,98426.70
2022-11-20T14:43:58.944Z,98431.02
2022-11-20T14:46:29.920Z,98421.28
2022-11-20T14:49:03.724Z,98421.17
2022-11-20T14:51:37.846Z,98418.08
2022-11-20T14:54:19.911Z,98414.43
2022-11-20T14:57:00.135Z,98411.29
2022-11-20T14:59:32.917Z,98416.45
2022-11-20T15:02:06.351Z,98410.88
2022-11-20T15:04:46.498Z,98408.91
2022-11-20T15:07:27.678Z,98396.64
2022-11-20T15:10:08.171Z,98387.30
2022-11-20T15:12:42.759Z,98393.89
2022-11-20T15:15:19.235Z,98403.19
2022-11-20T15:17:50.892Z,98401.09
2022-11-20T15:20:24.070Z,98401.66
2022-11-20T15:22:55.362Z,98385.21
2022-11-20T15:25:26.751Z,98387.29
2022-11-20T15:27:59.583Z,98387.38
2022-11-20T15:30:31.095Z,98385.85
2022-11-20T15:33:01.807Z,98386.36
2022-11-20T15:35:32.944Z,98387.28
2022-11-20T15:38:03.686Z,98388.45
2022-11-20T15:40:35.098Z,98384.53
2022-11-20T15:43:12.568Z,98375.72
2022-11-20T15:45:47.015Z,98376.80
2022-11-20T15:48:21.582Z,98381.00
2022-11-20T15:50:56.301Z,98385.33
2022-11-20T15:53:27.370Z,98392.13
2022-11-20T15:55:58.263Z,98389.76
2022-11-20T15:58:29.316Z,98384.42
2022-11-20T16:01:00.504Z,98390.37
2022-11-20T16:03:31.328Z,98392.31
2022-11-20T16:06:02.287Z,98382.10
2022-11-20T16:08:33.392Z,98378.98
2022-11-20T16:11:04.895Z,98370.55
2022-11-20T16:13:53.313Z,98369.05
2022-11-20T16:16:29.713Z,98371.20
2022-11-20T16:19:01.499Z,98364.02
2022-11-20T16:21:33.133Z,98365.23
2022-11-20T16:24:05.685Z,98367.20
2022-11-20T16:26:37.204Z,98366.20
2022-11-20T16:29:08.989Z,98369.52
2022-11-20T16:31:40.192Z,98370.88
2022-11-20T16:34:12.713Z,98369.11
2022-11-20T16:36:46.091Z,98370.19
2022-11-20T16:39:23.036Z,98374.98
2022-11-20T16:41:55.198Z,98376.64
2022-11-20T16:44:27.010Z,98378.58
2022-11-20T16:46:58.857Z,98377.86
2022-11-20T16:49:30.014Z,98371.34
2022-11-20T16:52:01.275Z,98369.50
2022-11-20T16:54:32.091Z,98367.90
2022-11-20T16:57:03.045Z,98370.27
2022-11-20T16:59:34.023Z,98371.73
2022-11-20T17:02:05.002Z,98377.06
2022-11-20T17:04:36.084Z,98375.13
2022-11-20T17:07:08.221Z,98375.38
2022-11-20T17:09:41.256Z,98374.77
2022-11-20T17:12:13.124Z,98369.64
2022-11-20T17:14:44.180Z,98370.18
2022-11-20T17:17:14.965Z,98375.76
2022-11-20T17:19:48.422Z,98373.13
2022-11-20T17:22:19.331Z,98376.68
2022-11-20T17:24:50.058Z,98376.05
2022-11-20T17:27:20.914Z,98371.65
2022-11-20T17:29:52.160Z,98369.38
2022-11-20T17:32:23.145Z,98360.84
2022-11-20T17:34:53.938Z,98369.52
2022-11-20T17:37:24.925Z,98368.13
2022-11-20T17:39:55.725Z,98371.73
2022-11-20T17:42:29.959Z,98370.52
2022-11-20T17:45:01.259Z,98372.83
2022-11-20T17:47:32.034Z,98371.06
2022-11-20T17:50:02.875Z,98369.20
2022-11-20T17:52:33.851Z,98365.61
2022-11-20T17:55:05.068Z,98358.92
2022-11-20T17:57:56.042Z,98360.82
2022-11-20T18:00:27.363Z,98361.88
2022-11-20T18:02:59.285Z,98359.00
2022-11-20T18:05:30.899Z,98359.79
2022-11-20T18:08:01.988Z,98367.45
2022-11-20T18:10:33.574Z,98365.45
2022-11-20T18:13:04.633Z,98370.49
2022-11-20T18:15:35.754Z,98361.18
2022-11-20T18:18:06.904Z,98357.33
2022-11-20T18:20:40.052Z,98369.29
2022-11-20T18:23:11.057Z,98373.77
2022-11-20T18:25:43.584Z,98375.56
2022-11-20T18:28:14.537Z,98375.11
2022-11-20T18:30:46.380Z,98376.15
2022-11-20T18:33:19.065Z,98379.70
2022-11-20T18:35:50.068Z,98374.61
2022-11-20T18:38:21.202Z,98375.91
2022-11-20T18:40:52.475Z,98376.08
2022-11-20T18:43:41.171Z,98377.86
2022-11-20T18:46:31.561Z,98373.58
2022-11-20T18:49:03.839Z,98374.84
2022-11-20T18:51:35.703Z,98369.71
2022-11-20T18:54:07.039Z,98364.10
2022-11-20T18:56:37.988Z,98367.16
2022-11-20T18:59:10.988Z,98364.79
2022-11-20T19:01:42.211Z,98364.17
2022-11-20T19:04:15.457Z,98367.36
2022-11-20T19:06:49.945Z,98373.52
2022-11-20T19:09:20.695Z,98369.86
2022-11-20T19:11:51.905Z,98374.10
2022-11-20T19:14:22.775Z,98376.29
2022-11-20T19:16:55.459Z,98378.20
2022-11-20T19:19:26.900Z,98379.02
2022-11-20T19:21:57.908Z,98376.89
2022-11-20T19:24:29.540Z,98378.84
2022-11-20T19:27:01.387Z,98377.76
2022-11-20T19:29:32.323Z,98375.69
2022-11-20T19:32:04.595Z,98373.36
2022-11-20T19:34:35.417Z,98371.73
2022-11-20T19:37:06.550Z,98371.90
2022-11-20T19:39:39.194Z,98375.98
2022-11-20T19:42:10.291Z,98372.84
2022-11-20T19:44:41.355Z,98372.52
2022-11-20T19:47:14.733Z,98365.03
2022-11-20T19:49:44.737Z,98365.05
2022-11-20T19:52:15.714Z,98367.06
2022-11-20T19:54:46.776Z,98373.77
2022-11-20T19:57:17.763Z,98373.60
2022-11-20T19:59:48.571Z,98375.14
2022-11-20T20:02:20.202Z,98378.10
2022-11-20T20:04:51.490Z,98367.35
2022-11-20T20:07:22.619Z,98368.98
2022-11-20T20:09:53.737Z,98366.95
2022-11-20T20:12:25.100Z,98366.19
2022-11-20T20:14:56.354Z,98369.77
2022-11-20T20:17:27.426Z,98369.97
2022-11-20T20:19:58.649Z,98365.41
2022-11-20T20:22:29.698Z,98357.45
2022-11-20T20:25:00.780Z,98355.24
2022-11-20T20:27:32.779Z,98350.17
2022-11-20T20:30:03.575Z,98347.78
2022-11-20T20:32:35.375Z,98351.38
2022-11-20T20:35:07.468Z,98354.62
2022-11-20T20:37:38.415Z,98349.90
2022-11-20T20:40:15.178Z,98353.89
2022-11-20T20:42:46.288Z,98350.35
2022-11-20T20:45:17.199Z,98354.93
2022-11-20T20:47:47.902Z,98353.00
2022-11-20T20:50:19.184Z,98358.52
2022-11-20T20:52:50.014Z,98361.79
2022-11-20T20:55:21.152Z,98347.14
2022-11-20T20:57:53.803Z,98344.11
2022-11-20T21:00:24.513Z,98343.87
2022-11-20T21:02:55.418Z,98350.02
2022-11-20T21:05:26.099Z,98351.48
2022-11-20T21:08:14.637Z,98347.33
2022-11-20T21:10:45.570Z,98346.69
2022-11-20T21:13:16.951Z,98342.15
2022-11-20T21:15:50.396Z,98341.25
2022-11-20T21:18:22.765Z,98327.95
2022-11-20T21:21:11.524Z,98326.10
2022-11-20T21:23:43.044Z,98320.25
2022-11-20T21:26:13.804Z,98316.30
2022-11-20T21:28:44.894Z,98312.80
2022-11-20T21:31:17.122Z,98316.41
2022-11-20T21:33:49.003Z,98313.77
2022-11-20T21:36:21.595Z,98315.27
2022-11-20T21:38:54.403Z,98317.06
2022-11-20T21:41:26.553Z,98316.11
2022-11-20T21:44:41.590Z,98310.21
2022-11-20T21:46:49.425Z,98308.81
2022-11-20T21:49:20.540Z,98308.94
2022-11-20T21:51:51.383Z,98318.86
2022-11-20T21:54:22.616Z,98313.27
2022-11-20T21:56:53.537Z,98316.88
2022-11-20T21:59:24.698Z,98309.94
2022-11-20T22:01:55.490Z,98305.32
2022-11-20T22:04:26.433Z,98301.48
2022-11-20T22:06:57.279Z,98296.00
2022-11-20T22:09:27.967Z,98296.85
2022-11-20T22:11:58.811Z,98297.23
2022-11-20T22:14:29.563Z,98302.45
2022-11-20T22:17:00.314Z,98304.63
2022-11-20T22:19:31.102Z,98303.38
2022-11-20T22:22:01.708Z,98299.52
2022-11-20T22:24:32.611Z,98301.27
2022-11-20T22:27:03.491Z,98303.34
2022-11-20T22:29:34.963Z,98302.77
2022-11-20T22:32:06.169Z,98301.63
2022-11-20T22:34:37.190Z,98301.91
2022-11-20T22:37:07.999Z,98301.39
2022-11-20T22:39:39.422Z,98296.27
2022-11-20T22:42:10.209Z,98289.54
2022-11-20T22:44:40.891Z,98278.35
2022-11-20T22:47:11.725Z,98272.65
2022-11-20T22:49:42.439Z,98270.70
2022-11-20T22:52:13.083Z,98272.10
2022-11-20T22:54:43.923Z,98272.91
2022-11-20T22:57:14.544Z,98267.95
2022-11-20T22:59:45.289Z,98259.14
2022-11-20T23:02:15.988Z,98259.95
2022-11-20T23:04:47.135Z,98255.27
2022-11-20T23:07:17.776Z,98252.23
2022-11-20T23:09:48.430Z,98243.52
2022-11-20T23:12:19.159Z,98238.36
2022-11-20T23:14:49.902Z,98234.12
2022-11-20T23:17:20.557Z,98231.34
2022-11-20T23:19:52.781Z,98226.84
2022-11-20T23:22:23.427Z,98231.76
2022-11-20T23:24:54.367Z,98233.73
2022-11-20T23:27:28.285Z,98221.11
2022-11-20T23:29:59.570Z,98213.28
2022-11-20T23:32:30.202Z,98207.16
2022-11-20T23:35:00.936Z,98213.83
2022-11-20T23:37:31.778Z,98213.98
2022-11-20T23:40:02.933Z,98211.11
2022-11-20T23:42:33.533Z,98207.36
2022-11-20T23:45:04.503Z,98211.33
2022-11-20T23:47:35.150Z,98217.61
2022-11-20T23:50:06.462Z,98220.48
2022-11-20T23:52:37.260Z,98222.00
2022-11-20T23:55:09.071Z,98222.48
2022-11-20T23:57:39.726Z,98215.05
